createdAt,value
2023-05-15T00:00:01.224Z,64.0
2023-05-15T00:05:01.386Z,63.0
2023-05-15T00:10:01.212Z,65.4
2023-05-15T00:15:01.362Z,64.6
2023-05-15T00:25:06.263Z,64.5
2023-05-15T00:30:01.217Z,65.3
2023-05-15T00:35:01.329Z,64.2
2023-05-15T00:40:01.222Z,65.6
2023-05-15T00:45:01.345Z,67.4
2023-05-15T00:50:01.240Z,70.0
2023-05-15T00:55:01.320Z,70.0
2023-05-15T01:00:01.214Z,70.9
2023-05-15T01:05:01.289Z,73.2
2023-05-15T01:10:01.210Z,73.7
2023-05-15T01:15:01.304Z,74.8
2023-05-15T01:20:01.242Z,79.4
2023-05-15T01:25:01.281Z,77.7
2023-05-15T01:30:01.371Z,75.2
2023-05-15T01:35:01.328Z,73.4
2023-05-15T01:50:01.605Z,84.4
2023-05-15T01:55:01.562Z,83.1
2023-05-15T02:00:01.403Z,85.9
2023-05-15T02:05:01.532Z,82.6
2023-05-15T02:10:01.597Z,82.4
2023-05-15T02:15:01.601Z,82.2
2023-05-15T02:20:01.419Z,83.5
2023-05-15T02:25:01.548Z,84.2
2023-05-15T02:30:01.435Z,88.9
2023-05-15T02:35:01.520Z,92.2
2023-05-15T02:40:01.587Z,92.7
2023-05-15T02:45:01.470Z,92.0
2023-05-15T02:50:01.452Z,91.1
2023-05-15T02:55:01.573Z,87.4
2023-05-15T03:00:01.396Z,82.9
2023-05-15T03:05:01.540Z,80.9
2023-05-15T03:10:01.378Z,81.7
2023-05-15T03:15:01.598Z,80.8
2023-05-15T03:20:01.371Z,83.2
2023-05-15T03:25:01.472Z,85.6
2023-05-15T03:30:01.414Z,88.3
2023-05-15T03:35:01.591Z,87.2
2023-05-15T03:40:01.357Z,86.8
2023-05-15T03:45:01.416Z,85.4
2023-05-15T03:50:01.362Z,86.3
2023-05-15T04:00:01.535Z,85.6
2023-05-15T04:05:01.470Z,85.5
2023-05-15T04:10:01.256Z,86.6
2023-05-15T04:15:01.319Z,85.9
2023-05-15T04:30:01.976Z,75.0
2023-05-15T04:35:01.860Z,77.1
2023-05-15T04:40:01.754Z,76.5
2023-05-15T04:45:01.925Z,76.3
2023-05-15T04:50:01.930Z,77.9
2023-05-15T04:55:01.924Z,81.3
2023-05-15T05:00:01.780Z,83.4
2023-05-15T05:05:01.912Z,83.6
2023-05-15T05:10:01.907Z,85.3
2023-05-15T05:15:01.906Z,85.1
2023-05-15T05:20:01.773Z,81.7
2023-05-15T05:25:01.849Z,77.2
2023-05-15T05:30:01.810Z,83.4
2023-05-15T05:35:02.050Z,79.0
2023-05-15T05:40:01.765Z,75.1
2023-05-15T05:45:01.859Z,74.0
2023-05-15T05:55:01.973Z,68.5
2023-05-15T06:00:01.767Z,71.1
2023-05-15T06:05:01.814Z,73.4
2023-05-15T06:10:02.838Z,74.3
2023-05-15T06:15:02.136Z,79.8
2023-05-15T06:20:02.048Z,80.0
2023-05-15T06:25:01.917Z,82.2
2023-05-15T06:30:01.824Z,82.6
2023-05-15T06:35:01.865Z,83.0
2023-05-15T06:40:01.790Z,81.1
2023-05-15T06:45:01.878Z,85.0
2023-05-15T06:50:01.723Z,86.6
2023-05-15T06:55:02.055Z,90.2
2023-05-15T07:00:06.758Z,93.3
2023-05-15T07:05:02.064Z,89.8
2023-05-15T07:10:01.780Z,86.1
2023-05-15T07:15:02.068Z,82.2
2023-05-15T07:20:01.748Z,78.1
2023-05-15T07:25:01.879Z,77.2
2023-05-15T07:30:02.730Z,77.7
2023-05-15T07:35:02.027Z,78.8
2023-05-15T07:40:01.791Z,79.9
2023-05-15T07:45:01.929Z,81.4
2023-05-15T07:50:01.718Z,79.0
2023-05-15T07:55:02.495Z,78.0
2023-05-15T08:00:01.715Z,77.5
2023-05-15T08:05:01.770Z,77.0
2023-05-15T08:10:01.715Z,79.0
2023-05-15T08:15:02.074Z,80.4
2023-05-15T08:20:01.773Z,82.0
2023-05-15T08:25:01.729Z,81.8
2023-05-15T08:30:01.674Z,83.0
2023-05-15T08:35:01.774Z,79.9
2023-05-15T08:40:02.686Z,77.7
2023-05-15T08:45:01.772Z,75.8
2023-05-15T08:50:01.684Z,73.7
2023-05-15T08:55:01.827Z,77.0
2023-05-15T09:00:01.617Z,76.2
2023-05-15T09:05:01.746Z,76.0
2023-05-15T09:10:01.684Z,76.2
2023-05-15T09:15:01.829Z,76.2
2023-05-15T09:20:01.666Z,70.7
2023-05-15T09:25:01.729Z,70.7
2023-05-15T09:30:01.555Z,71.4
2023-05-15T09:35:02.032Z,72.8
2023-05-15T09:40:01.650Z,74.0
2023-05-15T09:45:01.712Z,73.7
2023-05-15T09:50:01.649Z,73.2
2023-05-15T09:55:01.864Z,73.1
2023-05-15T10:00:01.572Z,72.6
2023-05-15T10:05:01.973Z,73.4
2023-05-15T10:15:01.770Z,75.7
2023-05-15T10:20:01.613Z,76.4
2023-05-15T10:25:01.672Z,77.0
2023-05-15T10:30:01.678Z,76.6
2023-05-15T10:35:01.698Z,76.5
2023-05-15T10:40:02.614Z,76.1
2023-05-15T10:45:01.605Z,75.8
2023-05-15T10:50:01.554Z,79.1
2023-05-15T10:55:01.705Z,79.7
2023-05-15T11:00:01.571Z,79.9
2023-05-15T11:05:02.714Z,80.4
2023-05-15T11:10:01.799Z,79.9
2023-05-15T11:30:01.434Z,79.2
2023-05-15T11:35:01.340Z,97.7
2023-05-15T11:40:01.209Z,91.7
2023-05-15T11:45:07.403Z,91.5
2023-05-15T11:50:01.173Z,89.0
2023-05-15T11:55:01.338Z,91.3
2023-05-15T12:00:01.349Z,83.9
2023-05-15T12:05:01.506Z,84.6
2023-05-15T12:10:01.234Z,82.5
2023-05-15T12:15:01.283Z,84.5
2023-05-15T12:20:01.258Z,83.7
2023-05-15T12:25:01.457Z,88.2
2023-05-15T12:30:01.222Z,88.9
2023-05-15T12:35:01.282Z,90.2
2023-05-15T12:40:01.283Z,91.7
2023-05-15T12:45:01.316Z,90.9
2023-05-15T12:50:01.265Z,89.0
2023-05-15T12:55:01.368Z,88.2
2023-05-15T13:00:01.231Z,86.4
2023-05-15T13:05:01.332Z,83.1
2023-05-15T13:10:01.189Z,85.6
2023-05-15T13:15:01.316Z,82.6
2023-05-15T13:20:06.286Z,81.9
2023-05-15T13:25:01.359Z,82.3
2023-05-15T13:30:01.251Z,87.3
2023-05-15T13:35:01.317Z,85.0
2023-05-15T13:40:01.665Z,87.6
2023-05-15T13:45:01.329Z,87.2
2023-05-15T13:50:01.825Z,87.0
2023-05-15T13:55:01.285Z,81.0
2023-05-15T14:00:01.276Z,79.8
2023-05-15T14:05:01.414Z,77.6
2023-05-15T14:10:01.256Z,77.6
2023-05-15T14:15:01.335Z,78.0
2023-05-15T14:20:01.274Z,78.0
2023-05-15T14:25:01.926Z,78.3
2023-05-15T14:30:01.285Z,77.8
2023-05-15T14:35:06.409Z,78.1
2023-05-15T14:40:01.305Z,78.4
2023-05-15T14:45:01.346Z,78.9
2023-05-15T14:50:01.275Z,78.0
2023-05-15T14:55:10.155Z,78.4
2023-05-15T15:00:01.356Z,78.0
2023-05-15T15:05:01.396Z,77.4
2023-05-15T15:10:01.256Z,75.9
2023-05-15T15:15:01.361Z,75.2
2023-05-15T15:20:01.605Z,74.6
2023-05-15T15:25:01.581Z,73.6
2023-05-15T15:30:01.259Z,73.4
2023-05-15T15:35:01.345Z,74.0
2023-05-15T15:40:01.292Z,74.0
2023-05-15T15:45:01.376Z,73.0
2023-05-15T15:50:01.264Z,72.6
2023-05-15T15:55:06.625Z,70.5
2023-05-15T16:00:01.264Z,69.2
2023-05-15T16:05:02.387Z,68.2
2023-05-15T16:10:13.086Z,66.6
2023-05-15T16:20:01.588Z,63.5
2023-05-15T16:25:01.459Z,62.4
2023-05-15T16:30:01.281Z,61.5
2023-05-15T16:35:01.378Z,61.2
2023-05-15T16:40:01.271Z,61.3
2023-05-15T16:45:01.450Z,61.4
2023-05-15T16:50:01.235Z,61.7
2023-05-15T16:55:01.385Z,65.0
2023-05-15T17:00:01.241Z,65.8
2023-05-15T17:05:01.323Z,67.7
2023-05-15T17:10:01.268Z,69.2
2023-05-15T17:15:01.375Z,71.4
2023-05-15T17:20:03.396Z,69.2
2023-05-15T17:25:01.300Z,69.8
2023-05-15T17:30:01.394Z,70.2
2023-05-15T17:35:01.407Z,69.9
2023-05-15T17:40:01.259Z,69.9
2023-05-15T17:45:01.378Z,72.5
2023-05-15T17:50:01.255Z,75.0
2023-05-15T17:55:01.292Z,75.6
2023-05-15T18:00:01.271Z,77.7
2023-05-15T18:05:01.301Z,78.6
2023-05-15T18:10:01.352Z,77.6
2023-05-15T18:15:01.340Z,76.4
2023-05-15T18:20:01.270Z,76.4
2023-05-15T18:25:01.333Z,76.0
2023-05-15T18:30:01.232Z,75.1
2023-05-15T18:35:01.410Z,74.7
2023-05-15T18:45:01.524Z,75.5
2023-05-15T18:50:01.318Z,72.1
2023-05-15T18:55:01.417Z,71.6
2023-05-15T19:00:01.236Z,71.5
2023-05-15T19:05:01.299Z,70.7
2023-05-15T19:10:01.235Z,68.5
2023-05-15T19:15:01.385Z,72.6
2023-05-15T19:20:01.261Z,74.9
2023-05-15T19:25:01.387Z,76.1
2023-05-15T19:30:01.258Z,76.8
2023-05-15T19:35:01.340Z,78.2
2023-05-15T19:40:01.284Z,75.6
2023-05-15T19:45:01.319Z,73.6
2023-05-15T19:50:01.407Z,72.4
2023-05-15T19:55:01.288Z,70.4
2023-05-15T20:00:01.266Z,67.2
2023-05-15T20:05:01.382Z,65.2
2023-05-15T20:10:01.279Z,61.8
2023-05-15T20:15:01.314Z,58.8
2023-05-15T20:20:01.256Z,57.7
2023-05-15T20:25:01.339Z,57.2
2023-05-15T20:30:01.361Z,56.8
2023-05-15T20:35:01.376Z,56.7
2023-05-15T20:40:01.276Z,57.2
2023-05-15T20:45:01.497Z,58.6
2023-05-15T20:50:01.323Z,59.3
2023-05-15T20:55:01.328Z,60.5
2023-05-15T21:00:01.195Z,61.6
2023-05-15T21:05:01.395Z,61.8
2023-05-15T21:10:01.310Z,60.9
2023-05-15T21:30:01.154Z,64.4
2023-05-15T21:35:02.057Z,62.5
2023-05-15T21:40:01.047Z,64.2
2023-05-15T21:45:01.119Z,63.3
2023-05-15T21:50:01.158Z,63.6
2023-05-15T21:55:01.119Z,62.5
2023-05-15T22:00:01.033Z,62.3
2023-05-15T22:05:01.101Z,60.5
2023-05-15T22:10:01.058Z,62.3
2023-05-15T22:15:02.116Z,64.6
2023-05-15T22:20:00.964Z,66.3
2023-05-15T22:25:01.159Z,70.2
2023-05-15T22:30:01.096Z,75.2
2023-05-15T22:35:01.155Z,78.9
2023-05-15T22:40:01.098Z,83.2
2023-05-15T22:45:02.010Z,86.5
2023-05-15T22:50:01.149Z,89.3
2023-05-15T22:55:01.249Z,88.8
2023-05-15T23:00:01.032Z,86.0
2023-05-15T23:05:01.154Z,83.5
2023-05-15T23:10:01.068Z,84.0
2023-05-15T23:15:01.032Z,83.4
2023-05-15T23:20:01.045Z,87.2
2023-05-15T23:25:01.101Z,91.6
2023-05-15T23:30:01.076Z,93.8
2023-05-15T23:35:01.107Z,96.4
2023-05-15T23:40:01.038Z,98.2
2023-05-15T23:45:01.148Z,97.2
2023-05-15T23:50:01.057Z,98.1
2023-05-15T23:55:01.110Z,100.8
